createdAt,value
2023-05-11T00:02:21.987Z,13.94
2023-05-11T00:04:48.485Z,13.80
2023-05-11T00:07:15.000Z,13.64
2023-05-11T00:09:41.785Z,13.60
2023-05-11T00:12:08.298Z,13.54
2023-05-11T00:14:34.754Z,13.40
2023-05-11T00:17:01.231Z,13.54
2023-05-11T00:19:28.041Z,13.45
2023-05-11T00:21:54.652Z,13.35
2023-05-11T00:24:21.104Z,13.34
2023-05-11T00:26:47.605Z,13.37
2023-05-11T00:29:14.352Z,13.43
2023-05-11T00:31:40.970Z,13.47
2023-05-11T00:34:07.562Z,13.52
2023-05-11T00:36:34.113Z,13.44
2023-05-11T00:39:00.576Z,13.44
2023-05-11T00:41:27.049Z,13.46
2023-05-11T00:43:53.536Z,13.50
2023-05-11T00:46:20.668Z,13.50
2023-05-11T00:48:47.316Z,13.27
2023-05-11T00:51:13.953Z,13.36
2023-05-11T00:53:40.511Z,13.35
2023-05-11T00:56:07.297Z,13.27
2023-05-11T00:58:34.786Z,13.05
2023-05-11T01:01:01.746Z,13.08
2023-05-11T01:03:28.408Z,13.19
2023-05-11T01:06:04.929Z,13.12
2023-05-11T01:08:39.048Z,13.14
2023-05-11T01:11:28.156Z,13.20
2023-05-11T01:14:06.443Z,13.05
2023-05-11T01:16:38.204Z,13.09
2023-05-11T01:19:25.229Z,13.07
2023-05-11T01:21:52.660Z,13.13
2023-05-11T01:24:46.509Z,13.26
2023-05-11T01:27:13.139Z,13.21
2023-05-11T01:29:42.566Z,13.27
2023-05-11T01:32:15.530Z,13.24
2023-05-11T01:34:43.388Z,13.55
2023-05-11T01:37:15.153Z,13.61
2023-05-11T01:39:52.772Z,13.58
2023-05-11T01:42:21.614Z,13.69
2023-05-11T01:44:51.495Z,13.62
2023-05-11T01:47:18.742Z,13.82
2023-05-11T01:49:45.593Z,13.95
2023-05-11T01:52:14.161Z,13.88
2023-05-11T01:54:43.898Z,13.95
2023-05-11T01:57:12.467Z,13.97
2023-05-11T01:59:40.209Z,13.92
2023-05-11T02:02:08.361Z,13.92
2023-05-11T02:04:35.526Z,14.02
2023-05-11T02:07:02.603Z,14.09
2023-05-11T02:09:30.448Z,14.02
2023-05-11T02:11:57.794Z,14.02
2023-05-11T02:14:25.609Z,13.96
2023-05-11T02:16:53.223Z,13.89
2023-05-11T02:19:20.345Z,13.90
2023-05-11T02:21:47.501Z,13.97
2023-05-11T02:24:14.812Z,14.06
2023-05-11T02:26:41.385Z,14.10
2023-05-11T02:29:07.932Z,14.10
2023-05-11T02:31:37.863Z,13.94
2023-05-11T02:34:08.002Z,13.98
2023-05-11T02:36:37.679Z,14.05
2023-05-11T02:39:07.061Z,13.90
2023-05-11T02:41:38.520Z,13.98
2023-05-11T02:44:08.337Z,13.97
2023-05-11T02:46:36.882Z,13.96
2023-05-11T02:49:05.813Z,13.96
2023-05-11T02:51:39.466Z,14.05
2023-05-11T02:54:10.721Z,14.12
2023-05-11T02:56:41.581Z,14.00
2023-05-11T02:59:08.895Z,13.95
2023-05-11T03:01:35.652Z,14.16
2023-05-11T03:04:05.632Z,14.11
2023-05-11T03:06:33.244Z,14.05
2023-05-11T03:09:01.333Z,14.02
2023-05-11T03:11:28.478Z,13.95
2023-05-11T03:13:55.020Z,13.99
2023-05-11T03:16:22.571Z,13.99
2023-05-11T03:18:49.849Z,14.09
2023-05-11T03:21:20.727Z,14.02
2023-05-11T03:23:47.969Z,13.85
2023-05-11T03:26:17.053Z,13.84
2023-05-11T03:28:44.844Z,13.99
2023-05-11T03:31:11.340Z,13.80
2023-05-11T03:33:37.891Z,13.78
2023-05-11T03:36:09.094Z,13.75
2023-05-11T03:38:36.451Z,13.79
2023-05-11T03:41:04.219Z,13.87
2023-05-11T03:43:34.620Z,13.94
2023-05-11T03:46:01.945Z,13.93
2023-05-11T03:48:28.651Z,13.84
2023-05-11T03:50:56.158Z,13.88
2023-05-11T03:53:23.208Z,13.94
2023-05-11T03:55:50.604Z,13.95
2023-05-11T03:58:17.131Z,13.93
2023-05-11T04:00:43.659Z,13.94
2023-05-11T04:03:10.267Z,14.00
2023-05-11T04:05:38.390Z,13.94
2023-05-11T04:08:08.214Z,13.98
2023-05-11T04:10:35.007Z,14.03
2023-05-11T04:13:01.502Z,14.03
2023-05-11T04:15:28.794Z,13.99
2023-05-11T04:17:55.563Z,13.94
2023-05-11T04:20:22.103Z,13.92
2023-05-11T04:22:48.606Z,13.87
2023-05-11T04:25:15.292Z,14.02
2023-05-11T04:27:41.794Z,13.95
2023-05-11T04:30:08.511Z,13.92
2023-05-11T04:32:35.083Z,13.94
2023-05-11T04:35:02.147Z,13.92
2023-05-11T04:37:32.733Z,13.81
2023-05-11T04:40:00.920Z,14.01
2023-05-11T04:42:27.434Z,13.97
2023-05-11T04:44:55.997Z,13.99
2023-05-11T04:47:22.491Z,13.90
2023-05-11T04:49:49.216Z,13.86
2023-05-11T04:52:15.987Z,13.89
2023-05-11T04:54:45.192Z,14.04
2023-05-11T04:57:11.711Z,13.90
2023-05-11T04:59:38.422Z,13.91
2023-05-11T05:02:04.986Z,14.09
2023-05-11T05:04:32.522Z,14.20
2023-05-11T05:07:00.289Z,14.23
2023-05-11T05:09:26.930Z,14.20
2023-05-11T05:11:53.844Z,14.17
2023-05-11T05:14:20.321Z,14.20
2023-05-11T05:16:46.905Z,14.21
2023-05-11T05:19:13.548Z,14.30
2023-05-11T05:21:40.758Z,14.23
2023-05-11T05:24:11.029Z,14.48
2023-05-11T05:26:37.733Z,14.36
2023-05-11T05:29:04.993Z,14.43
2023-05-11T05:31:31.622Z,14.47
2023-05-11T05:33:58.555Z,14.50
2023-05-11T05:36:25.089Z,14.51
2023-05-11T05:38:51.939Z,14.55
2023-05-11T05:41:18.772Z,14.56
2023-05-11T05:43:46.132Z,14.49
2023-05-11T05:46:13.377Z,14.58
2023-05-11T05:48:40.001Z,14.88
2023-05-11T05:51:06.522Z,14.38
2023-05-11T05:53:33.309Z,14.44
2023-05-11T05:55:59.805Z,14.24
2023-05-11T05:58:26.291Z,14.74
2023-05-11T06:00:52.956Z,14.54
2023-05-11T06:03:19.568Z,14.42
2023-05-11T06:05:46.154Z,14.77
2023-05-11T06:08:12.693Z,14.50
2023-05-11T06:10:39.749Z,14.57
2023-05-11T06:13:09.528Z,14.45
2023-05-11T06:15:37.805Z,14.39
2023-05-11T06:18:11.719Z,14.42
2023-05-11T06:20:40.251Z,14.31
2023-05-11T06:23:07.912Z,14.48
2023-05-11T06:25:38.074Z,14.69
2023-05-11T06:28:05.095Z,14.60
2023-05-11T06:30:32.443Z,14.39
2023-05-11T06:32:59.955Z,14.47
2023-05-11T06:35:26.447Z,14.47
2023-05-11T06:37:53.011Z,14.59
2023-05-11T06:40:19.972Z,14.50
2023-05-11T06:42:46.672Z,14.64
2023-05-11T06:45:13.348Z,14.63
2023-05-11T06:47:42.346Z,14.68
2023-05-11T06:50:09.871Z,14.61
2023-05-11T06:52:37.963Z,14.48
2023-05-11T06:55:04.663Z,14.28
2023-05-11T06:57:31.217Z,14.58
2023-05-11T06:59:57.704Z,14.53
2023-05-11T07:02:24.283Z,14.28
2023-05-11T07:04:51.005Z,14.42
2023-05-11T07:07:17.533Z,14.50
2023-05-11T07:09:44.012Z,14.61
2023-05-11T07:12:10.651Z,14.64
2023-05-11T07:14:37.091Z,14.68
2023-05-11T07:17:03.763Z,14.79
2023-05-11T07:19:30.344Z,14.75
2023-05-11T07:21:56.863Z,14.98
2023-05-11T07:24:23.406Z,14.90
2023-05-11T07:26:50.986Z,14.68
2023-05-11T07:29:17.621Z,14.96
2023-05-11T07:31:44.300Z,14.63
2023-05-11T07:34:10.771Z,14.59
2023-05-11T07:36:37.274Z,14.65
2023-05-11T07:39:03.764Z,14.63
2023-05-11T07:41:30.931Z,14.84
2023-05-11T07:43:59.857Z,14.73
2023-05-11T07:46:26.439Z,14.62
2023-05-11T07:49:03.536Z,14.55
2023-05-11T07:51:39.750Z,14.78
2023-05-11T07:54:06.240Z,14.53
2023-05-11T07:56:32.733Z,14.67
2023-05-11T07:58:59.224Z,14.50
2023-05-11T08:01:25.786Z,14.54
2023-05-11T08:03:52.221Z,14.39
2023-05-11T08:06:18.840Z,14.57
2023-05-11T08:08:45.407Z,14.49
2023-05-11T08:11:11.937Z,14.66
2023-05-11T08:13:38.479Z,14.24
2023-05-11T08:16:05.247Z,14.24
2023-05-11T08:18:31.992Z,14.05
2023-05-11T08:20:58.629Z,14.02
2023-05-11T08:23:25.142Z,14.11
2023-05-11T08:25:52.859Z,14.16
2023-05-11T08:28:19.673Z,14.10
2023-05-11T08:30:46.349Z,14.07
2023-05-11T08:33:34.000Z,13.94
2023-05-11T08:36:00.316Z,13.98
2023-05-11T08:38:26.790Z,13.81
2023-05-11T08:40:53.339Z,13.74
2023-05-11T08:43:19.990Z,13.84
2023-05-11T08:45:49.998Z,13.85
2023-05-11T08:48:21.016Z,13.85
2023-05-11T08:50:47.666Z,13.94
2023-05-11T08:53:14.525Z,13.87
2023-05-11T08:55:41.964Z,14.06
2023-05-11T08:58:08.447Z,13.91
2023-05-11T09:00:35.492Z,14.04
2023-05-11T09:03:03.953Z,14.02
2023-05-11T09:05:31.654Z,13.93
2023-05-11T09:08:04.163Z,13.90
2023-05-11T09:10:30.784Z,13.87
2023-05-11T09:12:57.262Z,13.91
2023-05-11T09:15:23.724Z,14.03
2023-05-11T09:17:50.280Z,13.76
2023-05-11T09:20:24.100Z,13.73
2023-05-11T09:22:51.677Z,13.81
2023-05-11T09:25:18.631Z,13.76
2023-05-11T09:27:46.364Z,13.66
2023-05-11T09:30:13.811Z,13.83
2023-05-11T09:33:07.459Z,13.44
2023-05-11T09:35:34.640Z,13.62
2023-05-11T09:38:06.021Z,13.41
2023-05-11T09:40:34.688Z,13.50
2023-05-11T09:43:02.134Z,13.26
2023-05-11T09:45:55.061Z,13.58
2023-05-11T09:48:21.747Z,13.55
2023-05-11T09:50:48.823Z,13.45
2023-05-11T09:53:15.356Z,13.55
2023-05-11T09:55:51.104Z,13.01
2023-05-11T09:58:17.617Z,12.90
2023-05-11T10:00:56.775Z,12.99
2023-05-11T10:03:25.570Z,13.02
2023-05-11T10:05:59.347Z,12.91
2023-05-11T10:08:30.360Z,12.82
2023-05-11T10:10:57.141Z,12.69
2023-05-11T10:13:27.100Z,12.77
2023-05-11T10:15:55.066Z,12.88
2023-05-11T10:18:21.774Z,12.93
2023-05-11T10:20:48.682Z,12.76
2023-05-11T10:23:16.502Z,12.72
2023-05-11T10:25:43.462Z,12.71
2023-05-11T10:28:10.562Z,12.61
2023-05-11T10:30:37.375Z,12.56
2023-05-11T10:33:06.205Z,12.64
2023-05-11T10:35:32.931Z,12.49
2023-05-11T10:38:00.913Z,12.60
2023-05-11T10:40:27.590Z,12.74
2023-05-11T10:43:06.168Z,12.78
2023-05-11T10:45:51.564Z,12.93
2023-05-11T10:48:20.871Z,12.81
2023-05-11T10:51:16.814Z,12.62
2023-05-11T10:53:56.003Z,12.61
2023-05-11T10:56:26.086Z,12.71
2023-05-11T10:59:11.272Z,12.62
2023-05-11T11:01:39.565Z,12.61
2023-05-11T11:04:10.061Z,12.79
2023-05-11T11:06:38.419Z,12.85
2023-05-11T11:09:06.256Z,12.95
2023-05-11T11:11:34.594Z,12.72
2023-05-11T11:14:02.922Z,12.44
2023-05-11T11:16:30.288Z,12.44
2023-05-11T11:19:15.551Z,12.47
2023-05-11T11:21:42.938Z,12.54
2023-05-11T11:24:09.427Z,12.51
2023-05-11T11:26:51.977Z,12.63
2023-05-11T11:29:18.623Z,12.43
2023-05-11T11:31:45.246Z,12.43
2023-05-11T11:34:30.158Z,12.56
2023-05-11T11:37:01.070Z,12.73
2023-05-11T11:39:28.921Z,12.56
2023-05-11T11:42:02.759Z,12.43
2023-05-11T11:44:29.658Z,12.60
2023-05-11T11:47:26.881Z,12.59
2023-05-11T11:49:54.714Z,12.40
2023-05-11T11:52:27.817Z,12.65
2023-05-11T11:55:01.369Z,12.84
2023-05-11T11:57:38.006Z,12.72
2023-05-11T12:00:06.925Z,12.83
2023-05-11T12:02:43.261Z,12.83
2023-05-11T12:05:12.707Z,13.18
2023-05-11T12:07:43.251Z,13.35
2023-05-11T12:10:12.093Z,13.36
2023-05-11T12:12:38.694Z,13.57
2023-05-11T12:15:06.785Z,13.57
2023-05-11T12:17:34.692Z,13.74
2023-05-11T12:20:12.085Z,13.51
2023-05-11T12:22:38.621Z,13.44
2023-05-11T12:25:05.679Z,13.61
2023-05-11T12:27:32.408Z,13.65
2023-05-11T12:30:00.209Z,13.91
2023-05-11T12:32:30.878Z,13.78
2023-05-11T12:34:58.392Z,14.01
2023-05-11T12:37:24.849Z,13.96
2023-05-11T12:39:55.849Z,13.91
2023-05-11T12:42:22.344Z,14.06
2023-05-11T12:44:49.036Z,14.06
2023-05-11T12:47:15.746Z,14.21
2023-05-11T12:49:42.718Z,14.12
2023-05-11T12:52:10.567Z,14.39
2023-05-11T12:54:41.044Z,14.46
2023-05-11T12:57:08.724Z,14.29
2023-05-11T12:59:37.548Z,14.18
2023-05-11T13:02:05.044Z,14.11
2023-05-11T13:04:32.058Z,14.10
2023-05-11T13:06:58.598Z,14.22
2023-05-11T13:09:25.872Z,14.08
2023-05-11T13:12:10.978Z,14.10
2023-05-11T13:14:37.846Z,14.33
2023-05-11T13:17:04.509Z,14.01
2023-05-11T13:19:32.293Z,13.98
2023-05-11T13:21:58.857Z,14.04
2023-05-11T13:24:25.901Z,14.13
2023-05-11T13:26:55.177Z,13.98
2023-05-11T13:29:21.760Z,14.02
2023-05-11T13:31:49.352Z,13.88
2023-05-11T13:34:16.297Z,13.77
2023-05-11T13:36:43.168Z,13.87
2023-05-11T13:39:10.113Z,14.33
2023-05-11T13:41:36.808Z,13.69
2023-05-11T13:44:03.407Z,13.75
2023-05-11T13:46:29.875Z,13.92
2023-05-11T13:48:56.481Z,14.16
2023-05-11T13:51:22.932Z,14.00
2023-05-11T13:53:49.461Z,13.81
2023-05-11T13:56:16.714Z,13.72
2023-05-11T13:58:43.176Z,13.80
2023-05-11T14:01:09.658Z,13.84
2023-05-11T14:03:36.259Z,14.13
2023-05-11T14:06:03.257Z,13.78
2023-05-11T14:08:29.765Z,13.89
2023-05-11T14:10:56.251Z,13.88
2023-05-11T14:13:22.857Z,13.74
2023-05-11T14:15:49.598Z,13.72
2023-05-11T14:18:16.574Z,13.81
2023-05-11T14:20:43.350Z,13.65
2023-05-11T14:23:09.961Z,13.58
2023-05-11T14:25:36.508Z,13.54
2023-05-11T14:28:03.309Z,13.68
2023-05-11T14:30:29.824Z,13.78
2023-05-11T14:32:57.014Z,13.65
2023-05-11T14:35:23.563Z,13.71
2023-05-11T14:37:50.015Z,13.73
2023-05-11T14:40:16.804Z,13.70
2023-05-11T14:42:43.350Z,13.85
2023-05-11T14:45:10.232Z,13.73
2023-05-11T14:47:36.856Z,13.81
2023-05-11T14:50:03.621Z,13.71
2023-05-11T14:52:30.945Z,13.82
2023-05-11T14:54:57.421Z,13.75
2023-05-11T14:57:23.946Z,13.78
2023-05-11T14:59:58.938Z,13.86
2023-05-11T15:02:26.924Z,13.64
2023-05-11T15:04:53.509Z,13.58
2023-05-11T15:07:20.001Z,13.61
2023-05-11T15:09:46.467Z,13.54
2023-05-11T15:12:12.999Z,13.65
2023-05-11T15:14:39.618Z,13.60
2023-05-11T15:17:06.079Z,13.92
2023-05-11T15:19:32.612Z,13.94
2023-05-11T15:21:59.285Z,13.72
2023-05-11T15:24:25.829Z,13.67
2023-05-11T15:26:52.445Z,13.81
2023-05-11T15:29:20.562Z,13.83
2023-05-11T15:31:47.111Z,13.84
2023-05-11T15:34:13.618Z,13.60
2023-05-11T15:36:40.086Z,13.61
2023-05-11T15:39:06.675Z,13.70
2023-05-11T15:41:34.029Z,13.63
2023-05-11T15:44:00.510Z,13.66
2023-05-11T15:46:27.098Z,13.62
2023-05-11T15:48:53.801Z,13.68
2023-05-11T15:51:20.249Z,13.50
2023-05-11T15:53:46.755Z,13.59
2023-05-11T15:56:13.229Z,13.64
2023-05-11T15:58:39.690Z,13.54
2023-05-11T16:01:06.284Z,13.40
2023-05-11T16:03:32.941Z,13.55
2023-05-11T16:05:59.588Z,13.56
2023-05-11T16:08:26.078Z,13.48
2023-05-11T16:10:52.583Z,13.25
2023-05-11T16:13:19.169Z,13.52
2023-05-11T16:15:45.661Z,13.48
2023-05-11T16:18:14.014Z,13.38
2023-05-11T16:20:40.752Z,13.35
2023-05-11T16:23:07.291Z,13.37
2023-05-11T16:25:33.736Z,13.36
2023-05-11T16:28:00.240Z,13.44
2023-05-11T16:30:27.062Z,13.40
2023-05-11T16:32:54.123Z,13.30
2023-05-11T16:35:20.877Z,13.39
2023-05-11T16:37:47.904Z,13.48
2023-05-11T16:40:14.858Z,13.55
2023-05-11T16:42:41.530Z,13.51
2023-05-11T16:45:08.313Z,13.54
2023-05-11T16:47:35.326Z,13.34
2023-05-11T16:50:01.856Z,13.39
2023-05-11T16:52:28.352Z,13.33
2023-05-11T16:54:56.906Z,13.31
2023-05-11T16:57:25.209Z,13.30
2023-05-11T16:59:51.773Z,13.48
2023-05-11T17:02:20.000Z,13.22
2023-05-11T17:04:46.612Z,13.32
2023-05-11T17:07:14.778Z,13.15
2023-05-11T17:09:41.517Z,13.17
2023-05-11T17:12:09.395Z,13.22
2023-05-11T17:14:36.188Z,13.33
2023-05-11T17:17:04.738Z,13.26
2023-05-11T17:19:31.284Z,13.27
2023-05-11T17:21:58.697Z,13.40
2023-05-11T17:24:25.508Z,13.35
2023-05-11T17:26:52.083Z,13.33
2023-05-11T17:29:18.537Z,13.41
2023-05-11T17:31:48.718Z,13.30
2023-05-11T17:34:15.811Z,13.24
2023-05-11T17:36:42.509Z,13.19
2023-05-11T17:39:11.448Z,13.18
2023-05-11T17:41:38.032Z,13.15
2023-05-11T17:44:04.808Z,13.38
2023-05-11T17:46:31.394Z,13.15
2023-05-11T17:48:58.165Z,13.04
2023-05-11T17:51:24.694Z,13.01
2023-05-11T17:53:51.357Z,13.03
2023-05-11T17:56:18.152Z,13.09
2023-05-11T17:58:44.709Z,13.07
2023-05-11T18:01:14.879Z,13.09
2023-05-11T18:03:41.645Z,12.96
2023-05-11T18:06:08.570Z,12.98
2023-05-11T18:08:36.658Z,12.98
2023-05-11T18:11:03.261Z,12.95
2023-05-11T18:13:30.977Z,13.06
2023-05-11T18:15:58.409Z,13.16
2023-05-11T18:18:25.517Z,13.04
2023-05-11T18:20:52.073Z,13.07
2023-05-11T18:23:18.582Z,13.04
2023-05-11T18:25:45.044Z,13.03
2023-05-11T18:28:11.515Z,12.94
2023-05-11T18:30:38.079Z,12.73
2023-05-11T18:33:04.661Z,12.66
2023-05-11T18:35:31.485Z,12.60
2023-05-11T18:37:59.424Z,12.61
2023-05-11T18:40:26.179Z,12.53
2023-05-11T18:42:53.840Z,12.69
2023-05-11T18:45:20.359Z,12.49
2023-05-11T18:47:47.062Z,12.50
2023-05-11T18:50:13.656Z,12.48
2023-05-11T18:52:40.194Z,12.28
2023-05-11T18:55:06.935Z,12.29
2023-05-11T18:57:34.495Z,12.25
2023-05-11T19:00:01.293Z,12.07
2023-05-11T19:02:28.014Z,12.21
2023-05-11T19:04:54.651Z,12.08
2023-05-11T19:07:21.146Z,12.04
2023-05-11T19:09:47.713Z,11.96
2023-05-11T19:12:14.300Z,11.96
2023-05-11T19:14:40.811Z,11.94
2023-05-11T19:17:07.321Z,12.12
2023-05-11T19:19:34.265Z,12.10
2023-05-11T19:22:00.953Z,12.21
2023-05-11T19:24:28.363Z,12.18
2023-05-11T19:27:06.049Z,12.06
2023-05-11T19:29:34.876Z,11.95
2023-05-11T19:32:01.656Z,11.99
2023-05-11T19:34:28.264Z,11.95
2023-05-11T19:36:54.804Z,12.09
2023-05-11T19:39:21.281Z,12.10
2023-05-11T19:41:47.718Z,12.05
2023-05-11T19:44:14.185Z,11.95
2023-05-11T19:46:46.265Z,11.90
2023-05-11T19:49:13.713Z,12.00
2023-05-11T19:51:40.337Z,12.13
2023-05-11T19:54:06.791Z,11.96
2023-05-11T19:56:33.786Z,12.12
2023-05-11T19:59:00.596Z,12.07
2023-05-11T20:01:27.255Z,12.10
2023-05-11T20:03:53.936Z,12.18
2023-05-11T20:06:20.520Z,12.11
2023-05-11T20:08:48.798Z,12.17
2023-05-11T20:11:15.598Z,12.18
2023-05-11T20:13:43.908Z,12.13
2023-05-11T20:16:10.681Z,12.23
2023-05-11T20:18:37.287Z,11.97
2023-05-11T20:21:04.346Z,11.92
2023-05-11T20:23:30.873Z,11.98
2023-05-11T20:25:57.433Z,12.08
2023-05-11T20:28:27.154Z,11.93
2023-05-11T20:30:54.777Z,11.83
2023-05-11T20:35:53.204Z,11.96
2023-05-11T20:38:20.115Z,11.84
2023-05-11T20:40:46.595Z,11.73
2023-05-11T20:43:14.593Z,11.73
2023-05-11T20:45:41.736Z,11.89
2023-05-11T20:48:08.387Z,11.86
2023-05-11T20:50:34.994Z,12.08
2023-05-11T20:53:01.549Z,11.95
2023-05-11T20:55:28.036Z,11.69
2023-05-11T20:57:54.532Z,11.69
2023-05-11T21:00:21.445Z,11.55
2023-05-11T21:02:48.345Z,11.62
2023-05-11T21:05:14.912Z,11.73
2023-05-11T21:07:41.355Z,11.61
2023-05-11T21:10:08.089Z,11.62
2023-05-11T21:12:34.639Z,11.38
2023-05-11T21:15:01.157Z,11.30
2023-05-11T21:17:27.743Z,11.61
2023-05-11T21:19:54.313Z,11.63
2023-05-11T21:22:20.832Z,11.50
2023-05-11T21:24:47.566Z,11.61
2023-05-11T21:27:14.998Z,11.67
2023-05-11T21:29:41.904Z,11.48
2023-05-11T21:32:08.401Z,11.60
2023-05-11T21:34:35.000Z,11.45
2023-05-11T21:37:02.679Z,11.55
2023-05-11T21:39:29.112Z,11.35
2023-05-11T21:41:55.664Z,11.32
2023-05-11T21:44:22.297Z,11.58
2023-05-11T21:46:49.110Z,11.54
2023-05-11T21:49:16.013Z,11.60
2023-05-11T21:51:42.498Z,11.65
2023-05-11T21:54:08.977Z,11.56
2023-05-11T21:56:35.452Z,11.44
2023-05-11T21:59:01.906Z,11.42
2023-05-11T22:01:28.475Z,11.51
2023-05-11T22:03:55.097Z,11.54
2023-05-11T22:06:21.859Z,11.54
2023-05-11T22:08:48.343Z,11.55
2023-05-11T22:11:14.839Z,11.46
2023-05-11T22:13:41.383Z,11.67
2023-05-11T22:16:08.055Z,11.69
2023-05-11T22:18:34.608Z,11.65
2023-05-11T22:21:01.122Z,11.69
2023-05-11T22:23:27.600Z,11.65
2023-05-11T22:25:54.071Z,11.53
2023-05-11T22:28:20.557Z,11.49
2023-05-11T22:30:47.018Z,11.79
2023-05-11T22:33:13.552Z,11.56
2023-05-11T22:35:40.215Z,11.64
2023-05-11T22:38:06.772Z,11.66
2023-05-11T22:40:33.280Z,11.77
2023-05-11T22:42:59.746Z,11.64
2023-05-11T22:45:26.270Z,11.60
2023-05-11T22:47:52.743Z,11.72
2023-05-11T22:50:19.485Z,11.47
2023-05-11T22:52:47.255Z,11.60
2023-05-11T22:55:13.679Z,11.58
2023-05-11T22:57:40.156Z,11.45
2023-05-11T23:00:06.945Z,11.80
2023-05-11T23:02:35.893Z,11.66
2023-05-11T23:05:02.824Z,11.65
2023-05-11T23:07:29.252Z,11.64
2023-05-11T23:09:55.827Z,11.83
2023-05-11T23:12:22.309Z,11.54
2023-05-11T23:14:49.600Z,11.58
2023-05-11T23:17:16.543Z,11.76
2023-05-11T23:19:43.204Z,11.73
2023-05-11T23:22:10.117Z,11.94
2023-05-11T23:24:36.963Z,11.71
2023-05-11T23:27:03.548Z,11.89
2023-05-11T23:29:30.180Z,11.79
2023-05-11T23:31:57.079Z,11.82
2023-05-11T23:34:23.674Z,11.68
2023-05-11T23:36:50.265Z,11.71
2023-05-11T23:39:16.681Z,11.51
2023-05-11T23:41:43.174Z,11.39
2023-05-11T23:44:09.844Z,11.54
2023-05-11T23:46:36.423Z,11.70
2023-05-11T23:49:03.061Z,11.73
2023-05-11T23:51:29.615Z,11.76
2023-05-11T23:53:56.091Z,11.83
2023-05-11T23:56:22.581Z,11.74
2023-05-11T23:58:50.399Z,11.74
